Cusseta, Alabama
Current Conditions -  °F | °C
As of 9:55 PM on Friday 19 Dec 2014 (Local Time) from KAUO Reporting Station
Overcast Overcast  
Wind Chill: 37°   Ceiling: 7500
Heat Index: 43°   Visibility: 10mi
Dew Point: 37°   Wind: 10mph
Humidity: 81%   Direction: 10°N
Pressure: 30.17"   Gusts: NA
Location:  32.79°N, 85.31°W
Report Text: KAUO 200355Z AUTO 01009KT 10SM OVC075 06/03 A3017 RMK AO1
Loading
Personal Weather Stations






























Interactive Weather Map New forecast layout! Learn more

10-Day Weather Forecast

Advertisements
Track Severe Weather on mobile